EPWA/WAW METAR and TAF weather

Enter ICAO airport designator
Station Type Date Time Source
EPWA METAR 2019/10/16 19:00 UTC NOAA

EPWA 161900Z 22004KT 190V250 CAVOK 12/10 Q1014 NOSIG


Station Type Date Time Source
EPWA Decoded METAR 2019/10/16 19:00 UTC NOAA

Warszawa-Okecie, Poland (EPWA) 52-10N 020-58E 107M
Oct 16, 2019 - 03:00 PM EDT / 2019.10.16 1900 UTC
Wind: from the SW (220 degrees) at 5 MPH (4 KT) (direction variable):0
Visibility: greater than 7 mile(s):0
Temperature: 53 F (12 C)
Dew Point: 50 F (10 C)
Relative Humidity: 87%
Pressure (altimeter): 29.94 in. Hg (1014 hPa)
ob: EPWA 161900Z 22004KT 190V250 CAVOK 12/10 Q1014 NOSIG
cycle: 19

Station Type Date Time Source
EPWA TAF 2019/10/16 18:36 UTC NOAA

TAF EPWA 161730Z 1618/1718 22008KT 9999 SCT040 PROB40
TEMPO 1618/1620 -SHRA SCT007 BKN012 BKN025TCU

Example: see airport list